createdAt,value
2022-08-19T00:01:44.215Z,71.53
2022-08-19T00:04:12.507Z,71.17
2022-08-19T00:06:39.930Z,71.21
2022-08-19T00:09:07.249Z,71.27
2022-08-19T00:11:34.119Z,71.28
2022-08-19T00:14:00.497Z,71.58
2022-08-19T00:16:27.105Z,71.38
2022-08-19T00:18:54.693Z,71.41
2022-08-19T00:21:21.149Z,71.52
2022-08-19T00:23:47.529Z,71.78
2022-08-19T00:26:14.483Z,71.65
2022-08-19T00:28:40.812Z,71.74
2022-08-19T00:31:07.788Z,71.68
2022-08-19T00:33:34.310Z,71.98
2022-08-19T00:36:01.395Z,72.13
2022-08-19T00:38:37.480Z,72.05
2022-08-19T00:41:04.514Z,72.21
2022-08-19T00:43:30.912Z,72.36
2022-08-19T00:45:57.252Z,72.16
2022-08-19T00:48:24.376Z,71.96
2022-08-19T00:50:52.195Z,71.94
2022-08-19T00:53:21.082Z,72.21
2022-08-19T00:55:48.407Z,72.00
2022-08-19T00:58:19.808Z,72.26
2022-08-19T01:00:47.104Z,72.22
2022-08-19T01:03:15.850Z,72.46
2022-08-19T01:05:46.564Z,72.18
2022-08-19T01:08:13.024Z,72.24
2022-08-19T01:10:59.636Z,72.55
2022-08-19T01:13:27.492Z,72.43
2022-08-19T01:15:56.677Z,72.45
2022-08-19T01:18:23.039Z,72.94
2022-08-19T01:20:52.817Z,73.21
2022-08-19T01:23:19.237Z,73.56
2022-08-19T01:25:47.801Z,73.62
2022-08-19T01:28:39.881Z,73.62
2022-08-19T01:31:08.152Z,73.60
2022-08-19T01:33:34.785Z,73.32
2022-08-19T01:36:09.522Z,73.53
2022-08-19T01:38:37.347Z,73.27
2022-08-19T01:41:11.906Z,73.40
2022-08-19T01:43:38.788Z,73.45
2022-08-19T01:46:25.536Z,72.96
2022-08-19T01:48:51.934Z,73.01
2022-08-19T01:51:18.722Z,73.19
2022-08-19T01:53:47.743Z,73.25
2022-08-19T01:56:14.250Z,73.24
2022-08-19T01:58:43.410Z,73.36
2022-08-19T02:01:09.809Z,73.58
2022-08-19T02:03:36.163Z,73.48
2022-08-19T02:06:06.275Z,73.28
2022-08-19T02:08:33.914Z,73.41
2022-08-19T02:11:00.266Z,73.55
2022-08-19T02:13:28.339Z,73.83
2022-08-19T02:15:54.713Z,73.60
2022-08-19T02:18:21.341Z,73.89
2022-08-19T02:20:54.315Z,73.85
2022-08-19T02:23:20.681Z,74.02
2022-08-19T02:25:47.877Z,74.20
2022-08-19T02:28:18.317Z,74.39
2022-08-19T02:30:45.182Z,74.35
2022-08-19T02:33:11.533Z,74.40
2022-08-19T02:35:37.861Z,74.38
2022-08-19T02:38:22.971Z,74.42
2022-08-19T02:40:52.482Z,74.55
2022-08-19T02:43:21.070Z,75.05
2022-08-19T02:45:49.204Z,74.81
2022-08-19T02:48:21.586Z,74.70
2022-08-19T02:50:53.606Z,74.55
2022-08-19T02:53:20.156Z,75.10
2022-08-19T02:55:47.209Z,75.02
2022-08-19T02:58:14.477Z,74.85
2022-08-19T03:00:45.121Z,74.69
2022-08-19T03:03:11.699Z,74.68
2022-08-19T03:05:48.290Z,75.13
2022-08-19T03:08:23.412Z,75.22
2022-08-19T03:10:49.743Z,75.35
2022-08-19T03:13:18.089Z,75.58
2022-08-19T03:15:45.648Z,75.74
2022-08-19T03:18:12.104Z,76.26
2022-08-19T03:20:46.470Z,76.06
2022-08-19T03:23:13.637Z,75.91
2022-08-19T03:25:43.970Z,76.25
2022-08-19T03:28:14.429Z,76.27
2022-08-19T03:30:44.584Z,75.92
2022-08-19T03:33:15.852Z,76.00
2022-08-19T03:35:45.985Z,76.17
2022-08-19T03:38:12.361Z,76.09
2022-08-19T03:40:38.693Z,76.08
2022-08-19T03:43:05.144Z,76.17
2022-08-19T03:45:31.472Z,76.28
2022-08-19T03:47:57.855Z,76.46
2022-08-19T03:50:25.265Z,76.80
2022-08-19T03:52:52.032Z,76.84
2022-08-19T03:55:18.895Z,76.75
2022-08-19T03:57:46.682Z,76.88
2022-08-19T04:00:14.117Z,77.21
2022-08-19T04:02:41.443Z,77.60
2022-08-19T04:05:09.015Z,77.52
2022-08-19T04:07:35.406Z,77.68
2022-08-19T04:10:01.825Z,78.06
2022-08-19T04:12:29.029Z,77.80
2022-08-19T04:14:55.375Z,77.69
2022-08-19T04:17:22.222Z,77.73
2022-08-19T04:19:48.560Z,77.85
2022-08-19T04:22:14.889Z,77.71
2022-08-19T04:24:41.299Z,77.65
2022-08-19T04:27:07.633Z,77.81
2022-08-19T04:29:34.230Z,77.90
2022-08-19T04:32:09.214Z,78.01
2022-08-19T04:34:36.139Z,78.73
2022-08-19T04:37:22.437Z,78.43
2022-08-19T04:40:07.634Z,78.42
2022-08-19T04:42:40.114Z,78.29
2022-08-19T04:45:09.224Z,78.51
2022-08-19T04:47:49.148Z,78.68
2022-08-19T04:50:23.528Z,78.09
2022-08-19T04:52:51.462Z,77.99
2022-08-19T04:55:18.877Z,78.23
2022-08-19T04:57:45.200Z,78.93
2022-08-19T05:00:12.146Z,78.77
2022-08-19T05:02:38.993Z,78.88
2022-08-19T05:05:07.398Z,79.20
2022-08-19T05:07:33.990Z,79.57
2022-08-19T05:10:00.397Z,79.89
2022-08-19T05:12:29.126Z,80.44
2022-08-19T05:14:57.668Z,80.62
2022-08-19T05:17:27.605Z,80.55
2022-08-19T05:20:13.951Z,80.83
2022-08-19T05:22:40.833Z,80.75
2022-08-19T05:25:13.042Z,81.04
2022-08-19T05:27:40.172Z,81.22
2022-08-19T05:30:06.779Z,81.54
2022-08-19T05:32:33.100Z,81.84
2022-08-19T05:34:59.526Z,81.44
2022-08-19T05:37:28.499Z,81.19
2022-08-19T05:39:55.670Z,82.04
2022-08-19T05:42:23.676Z,82.19
2022-08-19T05:44:50.553Z,82.49
2022-08-19T05:47:17.361Z,82.25
2022-08-19T05:49:43.833Z,82.37
2022-08-19T05:52:11.705Z,82.09
2022-08-19T05:54:41.163Z,81.99
2022-08-19T05:57:07.521Z,82.08
2022-08-19T05:59:36.415Z,82.05
2022-08-19T06:02:07.422Z,82.09
2022-08-19T06:04:34.121Z,82.02
2022-08-19T06:07:00.541Z,82.26
2022-08-19T06:09:39.893Z,82.11
2022-08-19T06:12:06.480Z,81.95
2022-08-19T06:14:35.427Z,81.92
2022-08-19T06:17:07.555Z,82.54
2022-08-19T06:19:34.074Z,82.36
2022-08-19T06:22:00.821Z,82.35
2022-08-19T06:24:29.465Z,82.18
2022-08-19T06:27:00.744Z,82.50
2022-08-19T06:29:28.758Z,82.47
2022-08-19T06:31:57.065Z,82.32
2022-08-19T06:34:24.018Z,82.36
2022-08-19T06:36:52.023Z,82.35
2022-08-19T06:39:23.410Z,82.01
2022-08-19T06:41:53.380Z,82.17
2022-08-19T06:44:23.277Z,81.34
2022-08-19T06:46:54.788Z,81.45
2022-08-19T06:49:21.706Z,81.04
2022-08-19T06:51:49.217Z,80.32
2022-08-19T06:54:17.046Z,80.44
2022-08-19T06:56:46.534Z,79.54
2022-08-19T06:59:14.691Z,79.07
2022-08-19T07:01:47.911Z,79.29
2022-08-19T07:04:16.522Z,78.52
2022-08-19T07:06:44.874Z,79.46
2022-08-19T07:09:13.672Z,78.30
2022-08-19T07:11:44.318Z,77.68
2022-08-19T07:14:18.936Z,76.91
2022-08-19T07:16:46.845Z,76.09
2022-08-19T07:19:16.240Z,75.29
2022-08-19T07:21:45.982Z,75.48
2022-08-19T07:24:13.163Z,75.23
2022-08-19T07:26:40.845Z,75.53
2022-08-19T07:29:09.169Z,75.79
2022-08-19T07:31:37.493Z,75.18
2022-08-19T07:34:07.782Z,75.75
2022-08-19T07:36:35.197Z,75.41
2022-08-19T07:39:04.297Z,75.01
2022-08-19T07:41:31.548Z,75.76
2022-08-19T07:43:58.824Z,75.58
2022-08-19T07:46:25.179Z,74.86
2022-08-19T07:48:52.525Z,74.16
2022-08-19T07:51:35.965Z,74.25
2022-08-19T07:54:04.173Z,74.36
2022-08-19T07:56:30.504Z,74.02
2022-08-19T08:01:29.008Z,73.19
2022-08-19T08:04:15.798Z,73.26
2022-08-19T08:07:00.652Z,72.83
2022-08-19T08:09:29.451Z,72.24
2022-08-19T08:12:04.984Z,72.98
2022-08-19T08:14:38.422Z,72.87
2022-08-19T08:17:11.789Z,72.58
2022-08-19T08:19:38.782Z,71.65
2022-08-19T08:22:07.100Z,72.14
2022-08-19T08:24:34.503Z,71.84
2022-08-19T08:27:01.723Z,72.71
2022-08-19T08:29:34.818Z,72.01
2022-08-19T08:32:01.583Z,72.73
2022-08-19T08:34:27.922Z,72.09
2022-08-19T08:36:54.306Z,72.39
2022-08-19T08:39:21.506Z,71.91
2022-08-19T08:42:10.295Z,71.46
2022-08-19T08:47:26.248Z,71.91
2022-08-19T08:49:55.774Z,71.50
2022-08-19T08:52:43.532Z,71.67
2022-08-19T08:55:14.628Z,70.04
2022-08-19T08:57:51.630Z,69.91
2022-08-19T09:00:20.769Z,69.28
2022-08-19T09:02:50.483Z,68.58
2022-08-19T09:05:19.429Z,67.77
2022-08-19T09:07:48.963Z,67.62
2022-08-19T09:10:27.032Z,66.29
2022-08-19T09:13:15.518Z,66.14
2022-08-19T09:15:48.778Z,65.75
2022-08-19T09:18:19.197Z,64.84
2022-08-19T09:20:47.546Z,64.69
2022-08-19T09:23:13.930Z,64.52
2022-08-19T09:25:41.099Z,64.39
2022-08-19T09:28:20.326Z,63.51
2022-08-19T09:30:49.342Z,62.85
2022-08-19T09:33:17.031Z,63.60
2022-08-19T09:35:53.205Z,62.17
2022-08-19T09:38:20.743Z,61.88
2022-08-19T09:40:47.393Z,59.78
2022-08-19T09:43:13.737Z,59.43
2022-08-19T09:45:40.566Z,59.61
2022-08-19T09:48:07.140Z,59.15
2022-08-19T09:50:35.042Z,58.49
2022-08-19T09:53:01.473Z,57.01
2022-08-19T09:55:31.166Z,57.88
2022-08-19T09:57:58.606Z,56.79
2022-08-19T10:00:25.144Z,56.23
2022-08-19T10:02:51.470Z,56.21
2022-08-19T10:05:38.445Z,55.97
2022-08-19T10:08:13.329Z,55.43
2022-08-19T10:10:43.177Z,55.32
2022-08-19T10:13:09.643Z,55.13
2022-08-19T10:15:47.225Z,55.64
2022-08-19T10:18:15.033Z,55.43
2022-08-19T10:20:42.717Z,54.70
2022-08-19T10:23:09.991Z,53.80
2022-08-19T10:25:36.896Z,54.04
2022-08-19T10:28:06.938Z,53.98
2022-08-19T10:30:37.605Z,53.37
2022-08-19T10:33:08.669Z,53.19
2022-08-19T10:35:42.510Z,51.59
2022-08-19T10:38:09.292Z,51.09
2022-08-19T10:40:36.615Z,51.31
2022-08-19T10:43:03.013Z,50.46
2022-08-19T10:45:29.346Z,49.81
2022-08-19T10:47:56.142Z,51.03
2022-08-19T10:50:42.037Z,50.04
2022-08-19T10:53:11.764Z,49.63
2022-08-19T10:55:57.253Z,50.25
2022-08-19T10:58:26.210Z,50.53
2022-08-19T11:00:57.100Z,48.68
2022-08-19T11:03:24.283Z,48.80
2022-08-19T11:06:01.273Z,46.17
2022-08-19T11:08:27.726Z,46.14
2022-08-19T11:11:01.557Z,46.92
2022-08-19T11:13:29.189Z,47.04
2022-08-19T11:16:07.327Z,46.61
2022-08-19T11:18:38.348Z,47.16
2022-08-19T11:21:13.353Z,46.82
2022-08-19T11:23:39.999Z,46.56
2022-08-19T11:26:06.383Z,45.51
2022-08-19T11:28:32.759Z,44.67
2022-08-19T11:30:59.203Z,44.96
2022-08-19T11:33:27.190Z,44.52
2022-08-19T11:35:54.279Z,43.77
2022-08-19T11:38:20.686Z,43.82
2022-08-19T11:40:54.322Z,42.67
2022-08-19T11:43:20.963Z,41.98
2022-08-19T11:45:49.534Z,42.60
2022-08-19T11:48:15.901Z,42.48
2022-08-19T11:50:43.069Z,42.84
2022-08-19T11:53:10.818Z,43.06
2022-08-19T11:55:39.897Z,42.09
2022-08-19T11:58:15.009Z,41.62
2022-08-19T12:00:46.085Z,42.11
2022-08-19T12:04:43.643Z,42.88
2022-08-19T12:07:10.031Z,44.14
2022-08-19T12:09:36.761Z,43.35
2022-08-19T12:12:09.252Z,43.62
2022-08-19T12:14:36.334Z,41.89
2022-08-19T12:17:05.228Z,41.57
2022-08-19T12:19:31.618Z,40.87
2022-08-19T12:22:03.683Z,41.59
2022-08-19T12:24:33.315Z,41.84
2022-08-19T12:27:03.210Z,40.95
2022-08-19T12:29:30.633Z,42.11
2022-08-19T12:32:02.091Z,43.01
2022-08-19T12:34:33.530Z,40.11
2022-08-19T12:37:03.062Z,40.43
2022-08-19T12:39:29.487Z,40.90
2022-08-19T12:41:55.899Z,41.28
2022-08-19T12:44:29.389Z,42.07
2022-08-19T12:46:59.482Z,40.54
2022-08-19T12:49:52.488Z,39.40
2022-08-19T12:52:23.299Z,39.02
2022-08-19T12:54:53.837Z,40.64
2022-08-19T12:57:22.317Z,40.49
2022-08-19T12:59:54.714Z,41.04
2022-08-19T13:02:22.346Z,40.95
2022-08-19T13:04:49.079Z,38.68
2022-08-19T13:07:15.607Z,41.53
2022-08-19T13:09:43.617Z,40.01
2022-08-19T13:12:13.822Z,39.70
2022-08-19T13:14:41.335Z,40.71
2022-08-19T13:17:09.478Z,42.13
2022-08-19T13:19:37.585Z,41.87
2022-08-19T13:22:04.081Z,39.50
2022-08-19T13:24:32.787Z,39.90
2022-08-19T13:27:01.513Z,40.60
2022-08-19T13:29:46.656Z,40.56
2022-08-19T13:32:31.575Z,41.26
2022-08-19T13:34:58.047Z,41.57
2022-08-19T13:37:42.046Z,41.50
2022-08-19T13:40:17.999Z,39.51
2022-08-19T13:42:47.244Z,40.37
2022-08-19T13:45:15.108Z,41.49
2022-08-19T13:47:45.278Z,41.18
2022-08-19T13:50:13.732Z,39.87
2022-08-19T13:52:41.024Z,40.90
2022-08-19T13:55:08.783Z,40.59
2022-08-19T13:57:35.515Z,39.96
2022-08-19T14:00:03.393Z,40.43
2022-08-19T14:02:31.125Z,41.72
2022-08-19T14:04:57.529Z,41.71
2022-08-19T14:07:25.072Z,42.45
2022-08-19T14:09:51.693Z,40.84
2022-08-19T14:12:28.793Z,40.13
2022-08-19T14:14:55.801Z,40.80
2022-08-19T14:17:22.467Z,42.39
2022-08-19T14:19:49.009Z,41.18
2022-08-19T14:22:15.470Z,40.98
2022-08-19T14:24:48.886Z,41.82
2022-08-19T14:27:15.679Z,42.30
2022-08-19T14:29:42.193Z,41.45
2022-08-19T14:32:08.722Z,40.60
2022-08-19T14:34:38.269Z,41.13
2022-08-19T14:37:04.899Z,40.29
2022-08-19T14:39:31.295Z,39.87
2022-08-19T14:41:58.213Z,39.42
2022-08-19T14:44:24.731Z,40.73
2022-08-19T14:46:51.267Z,41.58
2022-08-19T14:49:19.286Z,41.88
2022-08-19T14:51:47.815Z,41.58
2022-08-19T14:54:14.517Z,42.55
2022-08-19T14:56:42.111Z,42.31
2022-08-19T14:59:08.560Z,42.70
2022-08-19T15:01:36.116Z,43.50
2022-08-19T15:04:02.689Z,43.13
2022-08-19T15:06:29.273Z,42.17
2022-08-19T15:08:59.547Z,42.16
2022-08-19T15:11:29.285Z,42.00
2022-08-19T15:13:56.636Z,41.23
2022-08-19T15:16:24.126Z,41.33
2022-08-19T15:18:54.057Z,42.29
2022-08-19T15:21:26.904Z,41.54
2022-08-19T15:23:55.653Z,41.43
2022-08-19T15:26:22.136Z,40.63
2022-08-19T15:28:49.536Z,40.89
2022-08-19T15:31:25.451Z,40.81
2022-08-19T15:33:58.087Z,40.49
2022-08-19T15:36:26.126Z,41.14
2022-08-19T15:38:53.197Z,39.42
2022-08-19T15:41:23.341Z,39.31
2022-08-19T15:44:04.922Z,40.28
2022-08-19T15:46:33.309Z,41.12
2022-08-19T15:49:01.099Z,40.77
2022-08-19T15:51:30.229Z,40.66
2022-08-19T15:53:57.149Z,40.46
2022-08-19T15:56:27.190Z,40.87
2022-08-19T15:59:12.737Z,40.81
2022-08-19T16:01:57.862Z,40.54
2022-08-19T16:04:42.963Z,40.17
2022-08-19T16:07:10.192Z,40.73
2022-08-19T16:09:36.644Z,40.88
2022-08-19T16:12:04.928Z,41.23
2022-08-19T16:14:33.719Z,41.21
2022-08-19T16:17:00.263Z,40.56
2022-08-19T16:19:27.101Z,40.68
2022-08-19T16:21:56.374Z,41.44
2022-08-19T16:24:26.085Z,41.33
2022-08-19T16:26:52.909Z,41.45
2022-08-19T16:29:22.084Z,41.30
2022-08-19T16:32:10.656Z,41.31
2022-08-19T16:34:40.023Z,40.46
2022-08-19T16:37:06.453Z,40.27
2022-08-19T16:39:33.013Z,40.22
2022-08-19T16:41:59.519Z,40.18
2022-08-19T16:44:29.875Z,40.34
2022-08-19T16:46:59.647Z,40.87
2022-08-19T16:49:54.402Z,40.82
2022-08-19T16:52:18.023Z,41.32
2022-08-19T16:54:44.833Z,41.45
2022-08-19T16:57:12.487Z,41.04
2022-08-19T16:59:42.590Z,41.13
2022-08-19T17:02:19.349Z,41.09
2022-08-19T17:04:58.654Z,41.08
2022-08-19T17:07:33.445Z,41.31
2022-08-19T17:10:00.963Z,42.14
2022-08-19T17:12:31.897Z,42.28
2022-08-19T17:14:59.316Z,42.00
2022-08-19T17:17:28.940Z,41.82
2022-08-19T17:19:56.167Z,41.75
2022-08-19T17:22:22.562Z,41.55
2022-08-19T17:24:49.279Z,41.81
2022-08-19T17:27:15.746Z,41.68
2022-08-19T17:29:46.771Z,41.68
2022-08-19T17:32:14.378Z,42.49
2022-08-19T17:34:41.009Z,41.83
2022-08-19T17:37:07.563Z,42.49
2022-08-19T17:39:39.002Z,42.37
2022-08-19T17:42:08.117Z,42.56
2022-08-19T17:44:36.471Z,43.20
2022-08-19T17:47:04.144Z,43.67
2022-08-19T17:49:30.587Z,43.93
2022-08-19T17:51:59.954Z,43.86
2022-08-19T17:54:33.734Z,44.61
2022-08-19T17:57:01.194Z,44.48
2022-08-19T17:59:29.243Z,45.34
2022-08-19T18:01:57.326Z,45.47
2022-08-19T18:04:25.743Z,45.88
2022-08-19T18:06:54.998Z,45.87
2022-08-19T18:09:26.996Z,46.14
2022-08-19T18:11:57.044Z,46.09
2022-08-19T18:14:33.049Z,46.52
2022-08-19T18:17:09.140Z,45.92
2022-08-19T18:19:42.723Z,46.22
2022-08-19T18:22:27.014Z,46.44
2022-08-19T18:24:55.054Z,46.54
2022-08-19T18:27:21.526Z,46.56
2022-08-19T18:29:48.609Z,46.88
2022-08-19T18:32:16.458Z,47.37
2022-08-19T18:34:45.821Z,47.55
2022-08-19T18:37:12.889Z,47.75
2022-08-19T18:39:58.472Z,48.10
2022-08-19T18:42:43.585Z,48.17
2022-08-19T18:45:29.570Z,48.69
2022-08-19T18:48:26.829Z,48.71
2022-08-19T18:50:55.605Z,48.86
2022-08-19T18:53:22.016Z,48.12
2022-08-19T18:55:53.792Z,48.04
2022-08-19T18:58:25.962Z,48.53
2022-08-19T19:00:55.803Z,49.19
2022-08-19T19:03:23.618Z,48.15
2022-08-19T19:05:51.061Z,48.91
2022-08-19T19:08:17.782Z,49.11
2022-08-19T19:10:44.281Z,49.43
2022-08-19T19:13:16.255Z,49.42
2022-08-19T19:15:43.822Z,49.53
2022-08-19T19:18:13.380Z,49.45
2022-08-19T19:20:41.151Z,49.71
2022-08-19T19:23:08.217Z,49.74
2022-08-19T19:25:50.387Z,49.88
2022-08-19T19:28:17.793Z,49.87
2022-08-19T19:30:44.267Z,50.06
2022-08-19T19:33:11.122Z,50.14
2022-08-19T19:35:37.547Z,49.83
2022-08-19T19:38:07.914Z,49.17
2022-08-19T19:40:34.307Z,49.31
2022-08-19T19:43:00.730Z,49.85
2022-08-19T19:45:27.995Z,50.03
2022-08-19T19:47:54.506Z,50.34
2022-08-19T19:50:21.080Z,50.54
2022-08-19T19:52:47.541Z,50.77
2022-08-19T19:55:17.807Z,50.97
2022-08-19T19:57:48.716Z,51.03
2022-08-19T20:00:18.686Z,51.11
2022-08-19T20:02:49.262Z,51.60
2022-08-19T20:05:19.167Z,51.66
2022-08-19T20:08:04.177Z,51.85
2022-08-19T20:10:32.260Z,52.18
2022-08-19T20:13:02.246Z,51.68
2022-08-19T20:15:29.305Z,51.92
2022-08-19T20:17:55.848Z,51.97
2022-08-19T20:20:23.554Z,52.39
2022-08-19T20:22:50.116Z,52.25
2022-08-19T20:25:18.899Z,52.28
2022-08-19T20:27:48.871Z,52.41
2022-08-19T20:30:19.825Z,52.69
2022-08-19T20:32:47.753Z,52.68
2022-08-19T20:35:17.017Z,52.95
2022-08-19T20:37:43.419Z,52.94
2022-08-19T20:40:11.557Z,52.92
2022-08-19T20:42:40.502Z,53.27
2022-08-19T20:45:19.681Z,53.39
2022-08-19T20:47:58.497Z,53.86
2022-08-19T20:50:26.011Z,53.98
2022-08-19T20:52:56.433Z,54.15
2022-08-19T20:55:23.003Z,54.19
2022-08-19T20:57:49.465Z,54.28
2022-08-19T21:00:16.101Z,54.49
2022-08-19T21:02:42.531Z,54.15
2022-08-19T21:05:09.146Z,54.74
2022-08-19T21:07:39.374Z,54.20
2022-08-19T21:10:07.457Z,54.76
2022-08-19T21:12:34.059Z,55.67
2022-08-19T21:15:00.466Z,55.44
2022-08-19T21:17:26.861Z,55.65
2022-08-19T21:19:53.276Z,55.56
2022-08-19T21:22:19.667Z,55.57
2022-08-19T21:24:46.101Z,55.83
2022-08-19T21:27:12.528Z,55.95
2022-08-19T21:29:40.042Z,56.52
2022-08-19T21:32:06.890Z,56.54
2022-08-19T21:34:33.327Z,56.68
2022-08-19T21:36:59.734Z,57.19
2022-08-19T21:39:26.194Z,56.99
2022-08-19T21:41:52.738Z,57.14
2022-08-19T21:44:19.127Z,57.17
2022-08-19T21:46:45.579Z,57.31
2022-08-19T21:49:16.953Z,57.41
2022-08-19T21:51:43.390Z,57.91
2022-08-19T21:54:14.161Z,57.98
2022-08-19T21:56:40.797Z,58.31
2022-08-19T21:59:07.525Z,58.71
2022-08-19T22:01:34.461Z,59.29
2022-08-19T22:04:00.894Z,59.35
2022-08-19T22:06:27.340Z,59.73
2022-08-19T22:08:55.369Z,59.77
2022-08-19T22:11:23.406Z,60.10
2022-08-19T22:13:53.672Z,60.61
2022-08-19T22:16:21.081Z,60.87
2022-08-19T22:18:49.151Z,61.02
2022-08-19T22:21:15.550Z,61.12
2022-08-19T22:23:48.991Z,61.28
2022-08-19T22:26:17.711Z,61.51
2022-08-19T22:28:44.274Z,61.52
2022-08-19T22:31:11.571Z,61.56
2022-08-19T22:33:39.109Z,61.65
2022-08-19T22:36:07.653Z,62.06
2022-08-19T22:38:34.902Z,62.65
2022-08-19T22:41:01.289Z,62.62
2022-08-19T22:43:31.690Z,62.74
2022-08-19T22:46:00.558Z,62.85
2022-08-19T22:48:30.287Z,63.13
2022-08-19T22:51:16.352Z,63.22
2022-08-19T22:53:46.570Z,63.55
2022-08-19T22:56:15.706Z,63.56
2022-08-19T22:58:43.386Z,63.70
2022-08-19T23:01:11.457Z,63.79
2022-08-19T23:03:43.186Z,64.01
2022-08-19T23:06:09.994Z,64.07
2022-08-19T23:08:39.607Z,64.09
2022-08-19T23:11:06.303Z,64.82
2022-08-19T23:13:32.807Z,65.21
2022-08-19T23:15:59.422Z,65.04
2022-08-19T23:18:26.436Z,65.11
2022-08-19T23:20:54.526Z,65.09
2022-08-19T23:23:24.678Z,65.69
2022-08-19T23:25:53.248Z,65.77
2022-08-19T23:28:38.751Z,65.84
2022-08-19T23:31:06.415Z,66.16
2022-08-19T23:33:50.615Z,66.77
2022-08-19T23:36:19.617Z,66.37
2022-08-19T23:38:48.661Z,66.68
2022-08-19T23:41:17.257Z,66.68
2022-08-19T23:43:44.366Z,67.31
2022-08-19T23:46:13.595Z,67.45
2022-08-19T23:48:40.811Z,67.39
2022-08-19T23:51:10.538Z,67.20
2022-08-19T23:53:39.335Z,67.58
2022-08-19T23:56:07.358Z,68.09
2022-08-19T23:58:35.042Z,68.43
